createdAt,value
2017-11-21T00:02:26.791Z,11.67
2017-11-21T00:04:55.091Z,11.43
2017-11-21T00:07:22.641Z,12.10
2017-11-21T00:09:50.823Z,11.97
2017-11-21T00:12:18.406Z,12.30
2017-11-21T00:14:45.932Z,12.57
2017-11-21T00:17:14.240Z,12.43
2017-11-21T00:19:41.795Z,13.18
2017-11-21T00:22:09.389Z,14.07
2017-11-21T00:24:37.691Z,13.75
2017-11-21T00:27:06.082Z,13.00
2017-11-21T00:29:33.627Z,12.93
2017-11-21T00:32:01.918Z,11.87
2017-11-21T00:34:29.514Z,13.87
2017-11-21T00:36:57.090Z,13.70
2017-11-21T00:39:25.618Z,13.73
2017-11-21T00:41:53.895Z,11.97
2017-11-21T00:44:21.462Z,13.30
2017-11-21T00:46:49.004Z,13.67
2017-11-21T00:49:17.342Z,12.23
2017-11-21T00:51:44.874Z,13.13
2017-11-21T00:54:12.399Z,14.50
2017-11-21T00:56:39.924Z,13.27
2017-11-21T00:59:08.262Z,14.20
2017-11-21T01:01:35.777Z,16.47
2017-11-21T01:04:04.094Z,13.60
2017-11-21T01:06:31.600Z,15.13
2017-11-21T01:08:59.132Z,12.93
2017-11-21T01:11:26.678Z,13.90
2017-11-21T01:13:54.218Z,12.80
2017-11-21T01:16:21.823Z,13.83
2017-11-21T01:18:50.372Z,13.95
2017-11-21T01:21:17.974Z,12.90
2017-11-21T01:23:45.562Z,13.77
2017-11-21T01:26:13.895Z,12.90
2017-11-21T01:28:41.463Z,13.23
2017-11-21T01:31:08.996Z,13.83
2017-11-21T01:33:36.569Z,14.63
2017-11-21T01:36:04.103Z,14.07
2017-11-21T01:38:31.710Z,14.03
2017-11-21T01:40:59.878Z,14.87
2017-11-21T01:43:27.532Z,15.10
2017-11-21T01:45:55.809Z,15.03
2017-11-21T01:48:23.350Z,12.97
2017-11-21T01:50:50.910Z,13.57
2017-11-21T01:53:18.431Z,13.63
2017-11-21T01:55:45.977Z,12.40
2017-11-21T01:58:14.283Z,13.75
2017-11-21T02:00:41.884Z,12.10
2017-11-21T02:03:09.406Z,14.10
2017-11-21T02:05:36.941Z,16.37
2017-11-21T02:08:05.296Z,13.85
2017-11-21T02:10:33.651Z,14.60
2017-11-21T02:13:01.209Z,13.25
2017-11-21T02:15:28.769Z,13.37
2017-11-21T02:17:56.355Z,14.20
2017-11-21T02:20:24.691Z,15.35
2017-11-21T02:22:52.236Z,13.30
2017-11-21T02:25:19.869Z,14.63
2017-11-21T02:27:48.178Z,15.90
2017-11-21T02:30:15.780Z,15.00
2017-11-21T02:32:43.428Z,15.07
2017-11-21T02:35:11.007Z,15.93
2017-11-21T02:37:38.548Z,15.50
2017-11-21T02:40:06.118Z,15.23
2017-11-21T02:42:33.668Z,15.20
2017-11-21T02:45:01.195Z,14.60
2017-11-21T02:47:28.787Z,15.97
2017-11-21T02:49:56.365Z,13.70
2017-11-21T02:52:24.744Z,14.27
2017-11-21T02:54:52.272Z,13.43
2017-11-21T02:57:19.804Z,13.02
2017-11-21T02:59:47.385Z,14.43
2017-11-21T03:02:14.905Z,14.07
2017-11-21T03:04:42.526Z,13.57
2017-11-21T03:07:10.098Z,13.27
2017-11-21T03:09:39.141Z,14.33
2017-11-21T03:12:06.839Z,14.57
2017-11-21T03:14:34.493Z,12.68
2017-11-21T03:17:02.084Z,14.05
2017-11-21T03:19:29.700Z,13.07
2017-11-21T03:22:09.014Z,14.27
2017-11-21T03:24:48.435Z,16.30
2017-11-21T03:27:16.808Z,15.10
2017-11-21T03:29:45.139Z,14.25
2017-11-21T03:32:12.690Z,15.93
2017-11-21T03:34:40.240Z,15.17
2017-11-21T03:37:07.836Z,13.50
2017-11-21T03:39:36.208Z,14.43
2017-11-21T03:42:03.742Z,14.27
2017-11-21T03:44:31.339Z,14.80
2017-11-21T03:46:58.863Z,14.15
2017-11-21T03:49:26.420Z,14.10
2017-11-21T03:51:53.991Z,13.23
2017-11-21T03:54:21.600Z,14.53
2017-11-21T03:56:49.904Z,13.48
2017-11-21T03:59:18.265Z,13.47
2017-11-21T04:01:45.757Z,14.03
2017-11-21T04:04:13.352Z,15.00
2017-11-21T04:06:40.933Z,16.03
2017-11-21T04:09:08.621Z,14.97
2017-11-21T04:11:36.137Z,18.75
2017-11-21T04:14:03.629Z,15.25
2017-11-21T04:16:31.193Z,16.10
2017-11-21T04:18:59.482Z,15.10
2017-11-21T04:21:26.977Z,17.27
2017-11-21T04:23:54.477Z,19.00
2017-11-21T04:26:22.792Z,15.57
2017-11-21T04:28:50.331Z,15.90
2017-11-21T04:31:18.581Z,15.93
2017-11-21T04:33:46.065Z,16.67
2017-11-21T04:36:13.631Z,15.20
2017-11-21T04:38:41.126Z,13.60
2017-11-21T04:41:08.640Z,14.10
2017-11-21T04:43:36.324Z,13.33
2017-11-21T04:46:03.853Z,12.53
2017-11-21T04:48:32.134Z,15.20
2017-11-21T04:50:59.626Z,14.60
2017-11-21T04:53:27.133Z,15.30
2017-11-21T04:55:55.453Z,18.07
2017-11-21T04:58:23.012Z,15.63
2017-11-21T05:00:50.546Z,16.00
2017-11-21T05:03:18.848Z,15.97
2017-11-21T05:05:46.373Z,16.87
2017-11-21T05:08:14.682Z,15.70
2017-11-21T05:10:42.180Z,15.17
2017-11-21T05:13:09.682Z,16.53
2017-11-21T05:15:37.183Z,17.50
2017-11-21T05:18:04.798Z,17.13
2017-11-21T05:20:32.284Z,16.67
2017-11-21T05:22:59.772Z,22.37
2017-11-21T05:25:27.363Z,21.50
2017-11-21T05:27:55.621Z,19.73
2017-11-21T05:30:23.144Z,18.20
2017-11-21T05:33:02.697Z,14.80
2017-11-21T05:35:30.222Z,16.12
2017-11-21T05:37:57.716Z,15.57
2017-11-21T05:40:25.223Z,16.63
2017-11-21T05:42:52.777Z,14.97
2017-11-21T05:45:21.067Z,15.93
2017-11-21T05:47:48.588Z,18.05
2017-11-21T05:50:16.175Z,17.83
2017-11-21T05:52:43.736Z,18.65
2017-11-21T05:55:11.294Z,20.12
2017-11-21T05:57:38.785Z,21.07
2017-11-21T06:00:06.325Z,17.43
2017-11-21T06:02:33.852Z,17.73
2017-11-21T06:05:01.455Z,17.53
2017-11-21T06:07:28.945Z,17.80
2017-11-21T06:09:56.470Z,18.17
2017-11-21T06:12:23.986Z,19.27
2017-11-21T06:14:51.592Z,18.97
2017-11-21T06:17:19.122Z,17.43
2017-11-21T06:19:46.689Z,19.95
2017-11-21T06:22:14.243Z,23.03
2017-11-21T06:24:42.610Z,24.20
2017-11-21T06:27:10.899Z,19.70
2017-11-21T06:29:38.394Z,31.93
2017-11-21T06:32:05.896Z,22.50
2017-11-21T06:34:34.189Z,29.67
2017-11-21T06:37:02.581Z,32.13
2017-11-21T06:39:30.130Z,34.00
2017-11-21T06:41:57.695Z,51.57
2017-11-21T06:44:25.242Z,24.77
2017-11-21T06:46:53.488Z,27.70
2017-11-21T06:49:21.090Z,19.13
2017-11-21T06:51:48.584Z,18.53
2017-11-21T06:54:16.105Z,18.00
2017-11-21T06:56:43.595Z,30.33
2017-11-21T06:59:11.170Z,30.92
2017-11-21T07:01:39.599Z,22.90
2017-11-21T07:04:08.003Z,22.87
2017-11-21T07:06:35.534Z,17.50
2017-11-21T07:09:04.465Z,17.47
2017-11-21T07:11:31.965Z,20.42
2017-11-21T07:13:59.553Z,59.60
2017-11-21T07:16:27.107Z,87.53
2017-11-21T07:18:54.671Z,33.13
2017-11-21T07:21:22.179Z,27.80
2017-11-21T07:23:49.689Z,18.13
2017-11-21T07:26:17.277Z,18.83
2017-11-21T07:28:44.767Z,16.37
2017-11-21T07:31:13.024Z,18.70
2017-11-21T07:33:41.388Z,18.40
2017-11-21T07:36:08.896Z,19.40
2017-11-21T07:38:37.179Z,27.07
2017-11-21T07:41:05.428Z,20.40
2017-11-21T07:43:32.924Z,16.67
2017-11-21T07:46:00.487Z,18.77
2017-11-21T07:48:27.980Z,16.77
2017-11-21T07:50:55.606Z,17.23
2017-11-21T07:53:23.091Z,15.20
2017-11-21T07:55:50.588Z,15.37
2017-11-21T07:58:18.179Z,17.27
2017-11-21T08:00:45.669Z,16.97
2017-11-21T08:03:13.181Z,17.33
2017-11-21T08:05:41.478Z,16.73
2017-11-21T08:08:08.963Z,16.60
2017-11-21T08:10:36.457Z,16.80
2017-11-21T08:13:03.981Z,14.93
2017-11-21T08:15:31.489Z,15.63
2017-11-21T08:17:59.750Z,15.33
2017-11-21T08:20:27.251Z,14.97
2017-11-21T08:22:54.739Z,14.20
2017-11-21T08:25:22.221Z,16.33
2017-11-21T08:27:49.722Z,15.67
2017-11-21T08:30:17.209Z,14.00
2017-11-21T08:32:44.706Z,24.97
2017-11-21T08:35:12.977Z,20.53
2017-11-21T08:37:40.477Z,14.43
2017-11-21T08:40:07.981Z,16.00
2017-11-21T08:42:35.463Z,14.63
2017-11-21T08:45:03.726Z,16.57
2017-11-21T08:47:31.208Z,16.77
2017-11-21T08:49:58.699Z,14.83
2017-11-21T08:52:26.894Z,15.37
2017-11-21T08:54:54.384Z,16.53
2017-11-21T08:57:22.644Z,15.17
2017-11-21T08:59:50.149Z,16.57
2017-11-21T09:02:17.631Z,15.40
2017-11-21T09:04:45.161Z,14.47
2017-11-21T09:07:12.662Z,15.57
2017-11-21T09:09:40.153Z,14.73
2017-11-21T09:12:08.413Z,14.67
2017-11-21T09:14:35.912Z,14.87
2017-11-21T09:17:03.419Z,15.33
2017-11-21T09:19:30.913Z,15.70
2017-11-21T09:22:00.081Z,20.20
2017-11-21T09:24:27.584Z,19.27
2017-11-21T09:26:55.083Z,18.53
2017-11-21T09:29:22.596Z,17.57
2017-11-21T09:31:50.085Z,18.30
2017-11-21T09:34:17.564Z,15.13
2017-11-21T09:36:45.088Z,15.93
2017-11-21T09:39:12.586Z,15.30
2017-11-21T09:41:40.088Z,17.40
2017-11-21T09:44:07.581Z,16.07
2017-11-21T09:46:35.065Z,15.10
2017-11-21T09:49:02.562Z,15.37
2017-11-21T09:51:30.054Z,14.23
2017-11-21T09:53:57.566Z,15.53
2017-11-21T09:56:25.817Z,19.97
2017-11-21T09:58:53.405Z,19.17
2017-11-21T10:01:20.961Z,15.53
2017-11-21T10:03:49.205Z,15.67
2017-11-21T10:06:16.720Z,14.37
2017-11-21T10:08:44.206Z,13.67
2017-11-21T10:11:11.711Z,13.00
2017-11-21T10:13:39.991Z,14.53
2017-11-21T10:16:07.481Z,14.47
2017-11-21T10:18:35.024Z,16.23
2017-11-21T10:21:03.515Z,19.77
2017-11-21T10:23:31.079Z,15.30
2017-11-21T10:25:58.600Z,14.60
2017-11-21T10:28:26.856Z,20.50
2017-11-21T10:30:54.374Z,19.63
2017-11-21T10:33:21.869Z,16.30
2017-11-21T10:35:49.472Z,21.67
2017-11-21T10:38:17.005Z,15.33
2017-11-21T10:40:45.318Z,17.30
2017-11-21T10:43:12.833Z,15.90
2017-11-21T10:45:40.409Z,14.33
2017-11-21T10:48:09.799Z,15.80
2017-11-21T10:50:38.070Z,14.07
2017-11-21T10:53:06.357Z,15.87
2017-11-21T10:55:34.633Z,17.40
2017-11-21T10:58:02.982Z,22.80
2017-11-21T11:00:30.469Z,15.23
2017-11-21T11:02:58.745Z,21.03
2017-11-21T11:05:27.026Z,19.13
2017-11-21T11:07:55.327Z,16.57
2017-11-21T11:10:22.901Z,15.80
2017-11-21T11:12:50.402Z,13.07
2017-11-21T11:15:17.909Z,13.37
2017-11-21T11:17:45.401Z,12.80
2017-11-21T11:20:12.919Z,13.03
2017-11-21T11:22:40.407Z,12.13
2017-11-21T11:25:07.932Z,10.87
2017-11-21T11:27:35.430Z,11.07
2017-11-21T11:30:02.922Z,11.47
2017-11-21T11:32:31.251Z,13.77
2017-11-21T11:34:58.736Z,10.13
2017-11-21T11:37:26.229Z,10.47
2017-11-21T11:39:53.728Z,8.90
2017-11-21T11:42:21.251Z,9.63
2017-11-21T11:44:48.762Z,9.83
2017-11-21T11:47:16.251Z,10.70
2017-11-21T11:49:44.496Z,11.50
2017-11-21T11:52:11.990Z,10.63
2017-11-21T11:54:40.260Z,9.77
2017-11-21T11:57:08.569Z,9.33
2017-11-21T11:59:36.052Z,9.13
2017-11-21T12:02:03.588Z,8.87
2017-11-21T12:04:31.083Z,9.83
2017-11-21T12:06:58.569Z,8.90
2017-11-21T12:09:26.836Z,8.53
2017-11-21T12:11:55.089Z,9.23
2017-11-21T12:14:22.572Z,8.63
2017-11-21T12:16:51.172Z,10.73
2017-11-21T12:19:18.674Z,9.80
2017-11-21T12:21:46.202Z,8.83
2017-11-21T12:24:13.690Z,9.63
2017-11-21T12:26:41.179Z,9.83
2017-11-21T12:29:08.674Z,9.03
2017-11-21T12:31:36.168Z,11.60
2017-11-21T12:34:03.698Z,14.10
2017-11-21T12:36:31.176Z,13.33
2017-11-21T12:38:58.665Z,11.33
2017-11-21T12:41:26.172Z,10.50
2017-11-21T12:43:55.175Z,8.90
2017-11-21T12:46:22.681Z,9.13
2017-11-21T12:48:50.929Z,9.93
2017-11-21T12:51:18.418Z,8.57
2017-11-21T12:53:46.682Z,9.07
2017-11-21T12:56:14.167Z,9.00
2017-11-21T12:58:43.365Z,10.63
2017-11-21T13:01:11.615Z,9.13
2017-11-21T13:03:39.097Z,11.27
2017-11-21T13:06:07.358Z,9.20
2017-11-21T13:08:34.841Z,7.77
2017-11-21T13:11:02.357Z,7.67
2017-11-21T13:13:29.846Z,7.13
2017-11-21T13:15:58.099Z,6.63
2017-11-21T13:18:25.608Z,7.37
2017-11-21T13:20:53.089Z,7.20
2017-11-21T13:23:20.636Z,7.83
2017-11-21T13:25:48.128Z,6.63
2017-11-21T13:28:15.625Z,7.20
2017-11-21T13:30:43.124Z,7.90
2017-11-21T13:33:10.626Z,7.87
2017-11-21T13:35:38.890Z,7.33
2017-11-21T13:38:07.146Z,6.93
2017-11-21T13:40:34.683Z,6.77
2017-11-21T13:43:02.190Z,6.10
2017-11-21T13:45:30.433Z,5.93
2017-11-21T13:47:57.948Z,5.67
2017-11-21T13:50:25.457Z,5.77
2017-11-21T13:52:52.941Z,5.73
2017-11-21T13:55:21.212Z,5.73
2017-11-21T13:57:49.465Z,6.57
2017-11-21T14:00:16.980Z,7.17
2017-11-21T14:02:48.367Z,24.03
2017-11-21T14:05:15.862Z,9.07
2017-11-21T14:07:44.139Z,5.97
2017-11-21T14:10:12.399Z,6.60
2017-11-21T14:12:39.902Z,5.73
2017-11-21T14:15:07.390Z,7.33
2017-11-21T14:17:34.894Z,6.50
2017-11-21T14:20:02.388Z,7.00
2017-11-21T14:22:29.898Z,7.37
2017-11-21T14:24:58.177Z,7.00
2017-11-21T14:27:26.424Z,6.43
2017-11-21T14:29:53.923Z,6.63
2017-11-21T14:32:21.427Z,7.50
2017-11-21T14:34:48.917Z,6.40
2017-11-21T14:37:17.261Z,8.03
2017-11-21T14:39:44.756Z,8.13
2017-11-21T14:42:13.017Z,7.90
2017-11-21T14:44:40.529Z,7.60
2017-11-21T14:47:08.079Z,6.83
2017-11-21T14:49:35.652Z,7.83
2017-11-21T14:52:03.149Z,7.97
2017-11-21T14:54:30.650Z,7.60
2017-11-21T14:56:58.149Z,7.00
2017-11-21T14:59:25.628Z,7.10
2017-11-21T15:01:53.136Z,6.87
2017-11-21T15:04:20.664Z,8.37
2017-11-21T15:06:48.915Z,7.87
2017-11-21T15:09:16.412Z,8.73
2017-11-21T15:11:44.704Z,10.07
2017-11-21T15:14:12.235Z,14.30
2017-11-21T15:16:40.489Z,13.87
2017-11-21T15:19:08.007Z,13.50
2017-11-21T15:21:35.513Z,14.10
2017-11-21T15:24:03.003Z,12.83
2017-11-21T15:26:30.513Z,14.00
2017-11-21T15:28:58.010Z,12.47
2017-11-21T15:31:25.561Z,12.07
2017-11-21T15:33:53.036Z,13.37
2017-11-21T15:36:20.526Z,13.03
2017-11-21T15:38:48.032Z,13.77
2017-11-21T15:41:16.286Z,14.33
2017-11-21T15:43:43.783Z,15.47
2017-11-21T15:46:11.293Z,14.23
2017-11-21T15:48:38.837Z,13.67
2017-11-21T15:51:06.370Z,12.60
2017-11-21T15:53:33.863Z,14.33
2017-11-21T15:56:01.355Z,15.40
2017-11-21T15:58:29.628Z,13.20
2017-11-21T16:00:57.958Z,12.77
2017-11-21T16:03:25.476Z,12.60
2017-11-21T16:05:53.754Z,13.80
2017-11-21T16:08:22.019Z,15.73
2017-11-21T16:10:50.300Z,15.87
2017-11-21T16:13:18.557Z,16.53
2017-11-21T16:15:46.069Z,16.27
2017-11-21T16:18:13.597Z,16.17
2017-11-21T16:20:41.866Z,19.57
2017-11-21T16:23:10.166Z,17.00
2017-11-21T16:25:37.669Z,17.90
2017-11-21T16:28:05.185Z,18.13
2017-11-21T16:30:32.678Z,17.27
2017-11-21T16:33:00.170Z,17.53
2017-11-21T16:35:28.443Z,16.70
2017-11-21T16:37:55.957Z,21.87
2017-11-21T16:40:23.481Z,22.17
2017-11-21T16:42:50.983Z,19.87
2017-11-21T16:45:18.481Z,17.73
2017-11-21T16:47:46.791Z,80.03
2017-11-21T16:50:14.358Z,60.17
2017-11-21T16:52:41.876Z,69.80
2017-11-21T16:55:10.194Z,46.17
2017-11-21T16:57:37.696Z,48.83
2017-11-21T17:00:05.207Z,40.53
2017-11-21T17:02:32.743Z,49.17
2017-11-21T17:05:00.341Z,38.83
2017-11-21T17:07:27.848Z,33.90
2017-11-21T17:09:56.117Z,31.33
2017-11-21T17:12:23.624Z,26.40
2017-11-21T17:14:51.135Z,34.57
2017-11-21T17:17:18.758Z,29.43
2017-11-21T17:19:46.262Z,26.67
2017-11-21T17:22:14.553Z,25.70
2017-11-21T17:24:42.832Z,21.80
2017-11-21T17:27:10.356Z,23.17
2017-11-21T17:29:39.457Z,21.90
2017-11-21T17:32:07.845Z,20.97
2017-11-21T17:34:36.119Z,28.17
2017-11-21T17:37:04.089Z,22.30
2017-11-21T17:39:31.586Z,21.20
2017-11-21T17:41:59.128Z,20.53
2017-11-21T17:44:26.628Z,19.63
2017-11-21T17:46:54.153Z,29.73
2017-11-21T17:49:21.669Z,35.90
2017-11-21T17:51:49.194Z,42.07
2017-11-21T17:54:16.717Z,38.50
2017-11-21T17:56:44.222Z,34.20
2017-11-21T17:59:11.760Z,22.37
2017-11-21T18:01:39.277Z,21.37
2017-11-21T18:04:07.675Z,19.77
2017-11-21T18:06:35.305Z,20.13
2017-11-21T18:09:02.797Z,23.50
2017-11-21T18:11:30.304Z,20.57
2017-11-21T18:13:57.804Z,22.23
2017-11-21T18:16:25.306Z,21.47
2017-11-21T18:18:52.818Z,21.77
2017-11-21T18:21:20.332Z,23.70
2017-11-21T18:23:47.837Z,26.77
2017-11-21T18:26:15.354Z,25.93
2017-11-21T18:28:42.860Z,29.60
2017-11-21T18:31:10.380Z,29.63
2017-11-21T18:33:37.875Z,27.67
2017-11-21T18:36:05.367Z,24.00
2017-11-21T18:38:32.878Z,26.13
2017-11-21T18:41:00.414Z,23.50
2017-11-21T18:43:27.930Z,29.80
2017-11-21T18:45:55.429Z,21.43
2017-11-21T18:48:22.925Z,24.60
2017-11-21T18:50:50.437Z,21.80
2017-11-21T18:53:17.923Z,23.90
2017-11-21T18:55:46.226Z,20.17
2017-11-21T18:58:13.726Z,19.77
2017-11-21T19:00:41.235Z,33.20
2017-11-21T19:03:08.750Z,25.67
2017-11-21T19:05:36.240Z,24.77
2017-11-21T19:08:03.763Z,27.73
2017-11-21T19:10:31.266Z,26.67
2017-11-21T19:12:58.785Z,19.77
2017-11-21T19:15:26.326Z,22.67
2017-11-21T19:17:53.967Z,25.60
2017-11-21T19:20:21.487Z,26.97
2017-11-21T19:22:49.752Z,22.80
2017-11-21T19:25:18.027Z,21.73
2017-11-21T19:27:45.652Z,27.93
2017-11-21T19:30:13.194Z,27.67
2017-11-21T19:32:40.701Z,26.13
2017-11-21T19:35:08.198Z,22.47
2017-11-21T19:37:35.695Z,16.47
2017-11-21T19:40:03.198Z,17.37
2017-11-21T19:42:31.549Z,14.63
2017-11-21T19:44:59.109Z,15.87
2017-11-21T19:47:26.598Z,16.83
2017-11-21T19:49:54.107Z,16.83
2017-11-21T19:52:21.618Z,14.67
2017-11-21T19:54:49.105Z,17.40
2017-11-21T19:57:16.613Z,16.80
2017-11-21T19:59:44.882Z,18.63
2017-11-21T20:02:12.374Z,22.63
2017-11-21T20:04:39.881Z,27.30
2017-11-21T20:07:07.385Z,14.77
2017-11-21T20:09:34.937Z,19.67
2017-11-21T20:12:02.453Z,17.97
2017-11-21T20:14:29.997Z,19.20
2017-11-21T20:16:57.520Z,20.77
2017-11-21T20:19:25.786Z,19.47
2017-11-21T20:21:54.945Z,22.47
2017-11-21T20:24:22.449Z,17.03
2017-11-21T20:26:50.702Z,14.10
2017-11-21T20:29:18.209Z,19.63
2017-11-21T20:31:45.701Z,21.07
2017-11-21T20:34:14.107Z,23.63
2017-11-21T20:36:42.394Z,19.30
2017-11-21T20:39:10.658Z,18.20
2017-11-21T20:41:38.939Z,24.97
2017-11-21T20:44:07.218Z,25.23
2017-11-21T20:46:35.504Z,26.33
2017-11-21T20:49:03.015Z,27.87
2017-11-21T20:51:30.526Z,24.43
2017-11-21T20:53:58.029Z,25.43
2017-11-21T20:56:25.538Z,21.57
2017-11-21T20:58:53.045Z,18.50
2017-11-21T21:01:20.570Z,20.20
2017-11-21T21:03:48.063Z,22.40
2017-11-21T21:06:15.588Z,22.60
2017-11-21T21:08:43.086Z,22.40
2017-11-21T21:11:10.617Z,20.27
2017-11-21T21:13:38.894Z,17.60
2017-11-21T21:16:06.386Z,18.70
2017-11-21T21:18:33.913Z,17.33
2017-11-21T21:21:01.414Z,16.63
2017-11-21T21:23:28.894Z,15.37
2017-11-21T21:25:56.437Z,15.77
2017-11-21T21:28:24.725Z,17.27
2017-11-21T21:30:53.058Z,18.37
2017-11-21T21:33:20.608Z,17.87
2017-11-21T21:35:49.261Z,17.77
2017-11-21T21:38:16.833Z,18.53
2017-11-21T21:40:44.339Z,18.80
2017-11-21T21:43:12.642Z,20.20
2017-11-21T21:45:40.906Z,19.00
2017-11-21T21:48:09.169Z,18.07
2017-11-21T21:50:36.679Z,22.47
2017-11-21T21:53:04.210Z,23.33
2017-11-21T21:55:32.481Z,22.27
2017-11-21T21:58:00.733Z,24.80
2017-11-21T22:00:28.332Z,26.33
2017-11-21T22:02:55.846Z,26.07
2017-11-21T22:05:23.345Z,23.97
2017-11-21T22:07:50.854Z,23.77
2017-11-21T22:10:18.367Z,24.17
2017-11-21T22:12:45.877Z,20.20
2017-11-21T22:15:13.392Z,20.73
2017-11-21T22:17:40.978Z,20.63
2017-11-21T22:20:08.474Z,22.47
2017-11-21T22:22:36.753Z,22.13
2017-11-21T22:25:05.053Z,20.83
2017-11-21T22:27:32.554Z,14.63
2017-11-21T22:30:00.070Z,13.43
2017-11-21T22:32:27.577Z,11.27
2017-11-21T22:34:55.159Z,12.13
2017-11-21T22:37:23.413Z,12.93
2017-11-21T22:39:50.927Z,13.03
2017-11-21T22:42:18.424Z,12.30
2017-11-21T22:44:45.946Z,11.77
2017-11-21T22:47:13.435Z,13.70
2017-11-21T22:49:40.959Z,11.97
2017-11-21T22:52:08.467Z,11.50
2017-11-21T22:54:35.951Z,10.33
2017-11-21T22:57:04.226Z,12.30
2017-11-21T22:59:32.496Z,12.50
2017-11-21T23:02:00.768Z,11.43
2017-11-21T23:04:28.292Z,11.27
2017-11-21T23:06:55.859Z,11.37
2017-11-21T23:09:23.356Z,9.80
2017-11-21T23:11:51.626Z,10.93
2017-11-21T23:14:19.880Z,11.07
2017-11-21T23:16:47.370Z,9.70
2017-11-21T23:19:15.631Z,8.73
2017-11-21T23:21:43.141Z,10.30
2017-11-21T23:24:10.629Z,9.40
2017-11-21T23:26:38.139Z,9.57
2017-11-21T23:29:05.645Z,9.23
2017-11-21T23:31:33.141Z,10.03
2017-11-21T23:34:01.416Z,8.73
2017-11-21T23:36:29.666Z,10.53
2017-11-21T23:38:57.153Z,9.27
2017-11-21T23:41:25.412Z,9.33
2017-11-21T23:43:53.664Z,8.53
2017-11-21T23:46:21.165Z,9.40
2017-11-21T23:48:48.690Z,8.67
2017-11-21T23:51:16.184Z,8.67
2017-11-21T23:53:43.686Z,8.77
2017-11-21T23:56:11.169Z,8.50
2017-11-21T23:58:38.694Z,7.87
